Itamaraju, Brazil
Current Conditions -  °F | °C
As of 5:00 PM on Thursday 25 Dec 2014 (Local Time) from SBPS Reporting Station
Scattered Clouds Scattered Clouds  
Wind Chill: 81°   Ceiling: Unl
Heat Index: 85°   Visibility: 6mi
Dew Point: 72°   Wind: 12mph
Humidity: 74%   Direction: 80°E
Pressure: 30"   Gusts: NA
Location:  17.04°S, 39.53°W
Report Text: SBPS 252000Z 08010KT 9999 SCT020 27/22 Q1016
Loading
Personal Weather Stations






























Interactive Weather Map New forecast layout! Learn more

10-Day Weather Forecast

Advertisements
Track Severe Weather on mobile